createdAt,value
2018-04-06T00:02:25.122Z,67.60
2018-04-06T00:04:52.640Z,68.00
2018-04-06T00:07:21.118Z,68.50
2018-04-06T00:09:48.694Z,68.40
2018-04-06T00:12:16.967Z,68.30
2018-04-06T00:14:45.230Z,68.30
2018-04-06T00:17:12.766Z,68.60
2018-04-06T00:19:41.036Z,69.40
2018-04-06T00:22:08.929Z,69.20
2018-04-06T00:24:37.210Z,69.60
2018-04-06T00:27:04.825Z,69.50
2018-04-06T00:29:32.505Z,69.90
2018-04-06T00:32:00.052Z,70.10
2018-04-06T00:34:27.654Z,70.20
2018-04-06T00:36:55.221Z,70.20
2018-04-06T00:39:22.781Z,70.30
2018-04-06T00:41:51.101Z,70.40
2018-04-06T00:44:18.580Z,70.40
2018-04-06T00:46:46.190Z,70.40
2018-04-06T00:49:14.441Z,71.00
2018-04-06T00:51:41.949Z,70.40
2018-04-06T00:54:10.235Z,70.50
2018-04-06T00:56:38.509Z,70.60
2018-04-06T00:59:06.753Z,70.70
2018-04-06T01:01:34.281Z,70.70
2018-04-06T01:04:01.801Z,71.00
2018-04-06T01:06:30.313Z,71.40
2018-04-06T01:08:57.836Z,71.40
2018-04-06T01:11:25.352Z,71.40
2018-04-06T01:13:53.062Z,71.50
2018-04-06T01:16:20.694Z,71.50
2018-04-06T01:18:48.229Z,72.00
2018-04-06T01:21:16.533Z,72.20
2018-04-06T01:23:44.044Z,72.10
2018-04-06T01:26:11.542Z,72.20
2018-04-06T01:28:39.818Z,72.90
2018-04-06T01:31:08.106Z,73.00
2018-04-06T01:33:35.684Z,72.90
2018-04-06T01:36:03.371Z,73.10
2018-04-06T01:38:30.910Z,73.10
2018-04-06T01:40:58.419Z,73.50
2018-04-06T01:43:25.916Z,73.80
2018-04-06T01:45:54.370Z,74.00
2018-04-06T01:48:21.868Z,74.00
2018-04-06T01:50:49.534Z,74.10
2018-04-06T01:53:17.878Z,74.20
2018-04-06T01:55:45.397Z,74.20
2018-04-06T01:58:13.091Z,74.10
2018-04-06T02:00:41.398Z,75.40
2018-04-06T02:03:10.948Z,74.80
2018-04-06T02:05:39.802Z,75.10
2018-04-06T02:08:10.294Z,75.40
2018-04-06T02:10:37.829Z,75.30
2018-04-06T02:13:06.603Z,75.90
2018-04-06T02:15:34.790Z,75.90
2018-04-06T02:18:02.331Z,76.00
2018-04-06T02:20:30.621Z,76.00
2018-04-06T02:22:58.129Z,76.00
2018-04-06T02:25:26.583Z,75.70
2018-04-06T02:27:54.865Z,76.10
2018-04-06T02:30:23.177Z,76.10
2018-04-06T02:32:50.673Z,76.10
2018-04-06T02:35:18.304Z,75.90
2018-04-06T02:37:45.799Z,76.00
2018-04-06T02:40:13.311Z,76.20
2018-04-06T02:42:40.837Z,76.20
2018-04-06T02:45:08.343Z,76.40
2018-04-06T02:47:37.441Z,76.80
2018-04-06T02:50:04.961Z,76.70
2018-04-06T02:52:32.504Z,76.80
2018-04-06T02:55:00.207Z,76.90
2018-04-06T02:57:27.745Z,76.80
2018-04-06T02:59:55.999Z,76.90
2018-04-06T03:02:23.678Z,77.10
2018-04-06T03:04:51.335Z,77.50
2018-04-06T03:07:18.840Z,77.80
2018-04-06T03:09:47.138Z,77.70
2018-04-06T03:12:15.407Z,77.70
2018-04-06T03:14:42.908Z,77.70
2018-04-06T03:17:10.421Z,77.50
2018-04-06T03:19:38.003Z,77.40
2018-04-06T03:22:05.501Z,77.40
2018-04-06T03:24:33.013Z,77.50
2018-04-06T03:27:09.584Z,77.90
2018-04-06T03:29:38.155Z,77.80
2018-04-06T03:32:12.667Z,77.80
2018-04-06T03:34:40.202Z,78.40
2018-04-06T03:37:08.472Z,79.00
2018-04-06T03:39:36.883Z,79.10
2018-04-06T03:42:04.381Z,79.10
2018-04-06T03:44:31.949Z,79.10
2018-04-06T03:49:33.708Z,79.20
2018-04-06T03:52:14.939Z,79.20
2018-04-06T03:54:43.421Z,79.50
2018-04-06T03:57:11.699Z,79.70
2018-04-06T03:59:39.975Z,79.60
2018-04-06T04:02:07.483Z,79.60
2018-04-06T04:04:34.979Z,79.80
2018-04-06T04:07:02.545Z,79.80
2018-04-06T04:09:30.068Z,79.80
2018-04-06T04:11:57.634Z,79.50
2018-04-06T04:14:25.100Z,79.50
2018-04-06T04:16:53.117Z,79.50
2018-04-06T04:19:20.616Z,79.60
2018-04-06T04:27:03.680Z,79.70
2018-04-06T04:29:31.245Z,79.70
2018-04-06T04:31:58.768Z,80.00
2018-04-06T04:34:26.609Z,79.60
2018-04-06T04:36:54.117Z,79.60
2018-04-06T04:39:22.398Z,79.90
2018-04-06T04:41:50.688Z,79.90
2018-04-06T04:44:19.116Z,79.90
2018-04-06T04:46:46.638Z,79.70
2018-04-06T04:49:14.131Z,79.70
2018-04-06T04:51:42.502Z,79.70
2018-04-06T04:54:10.001Z,79.60
2018-04-06T04:56:37.746Z,79.40
2018-04-06T04:59:05.249Z,79.00
2018-04-06T05:01:32.763Z,79.10
2018-04-06T05:04:00.507Z,78.90
2018-04-06T05:06:28.802Z,79.30
2018-04-06T05:08:56.324Z,79.30
2018-04-06T05:11:23.842Z,79.20
2018-04-06T05:13:51.369Z,79.10
2018-04-06T05:16:20.503Z,79.00
2018-04-06T05:18:48.051Z,79.00
2018-04-06T05:21:16.339Z,78.80
2018-04-06T05:23:43.853Z,78.70
2018-04-06T05:26:11.403Z,78.80
2018-04-06T05:28:38.941Z,78.50
2018-04-06T05:31:06.515Z,78.40
2018-04-06T05:33:34.043Z,78.20
2018-04-06T05:36:03.050Z,77.90
2018-04-06T05:38:31.039Z,77.90
2018-04-06T05:40:58.569Z,77.80
2018-04-06T05:43:26.939Z,77.30
2018-04-06T05:45:54.492Z,77.30
2018-04-06T05:48:21.997Z,77.30
2018-04-06T05:50:50.374Z,77.40
2018-04-06T05:53:20.489Z,77.00
2018-04-06T05:55:49.055Z,76.80
2018-04-06T05:58:17.435Z,76.40
2018-04-06T06:00:44.899Z,76.20
2018-04-06T06:03:12.421Z,75.20
2018-04-06T06:05:39.928Z,74.30
2018-04-06T06:08:07.447Z,73.50
2018-04-06T06:10:35.077Z,72.80
2018-04-06T06:13:03.758Z,71.10
2018-04-06T06:15:31.324Z,71.10
2018-04-06T06:17:58.974Z,70.20
2018-04-06T06:20:26.500Z,69.80
2018-04-06T06:22:54.045Z,69.00
2018-04-06T06:25:21.550Z,68.80
2018-04-06T06:27:49.103Z,67.90
2018-04-06T06:30:17.531Z,67.90
2018-04-06T06:32:45.076Z,68.50
2018-04-06T06:35:12.603Z,67.30
2018-04-06T06:37:40.175Z,67.60
2018-04-06T06:40:08.100Z,66.90
2018-04-06T06:42:35.704Z,66.70
2018-04-06T06:45:03.221Z,67.00
2018-04-06T06:47:30.724Z,66.70
2018-04-06T06:49:58.255Z,66.10
2018-04-06T06:52:25.974Z,66.10
2018-04-06T06:54:53.445Z,65.50
2018-04-06T06:57:20.943Z,65.10
2018-04-06T06:59:48.463Z,65.00
2018-04-06T07:02:15.982Z,65.70
2018-04-06T07:04:44.254Z,63.80
2018-04-06T07:07:11.820Z,63.70
2018-04-06T07:09:40.103Z,62.70
2018-04-06T07:12:07.702Z,62.60
2018-04-06T07:14:35.243Z,62.50
2018-04-06T07:17:02.745Z,62.40
2018-04-06T07:19:31.145Z,61.80
2018-04-06T07:21:58.959Z,61.90
2018-04-06T07:24:27.251Z,60.90
2018-04-06T07:26:55.007Z,60.90
2018-04-06T07:29:23.283Z,61.70
2018-04-06T07:31:51.557Z,61.20
2018-04-06T07:34:19.871Z,60.50
2018-04-06T07:36:47.447Z,60.40
2018-04-06T07:39:14.967Z,60.90
2018-04-06T07:41:42.548Z,61.50
2018-04-06T07:44:11.658Z,61.10
2018-04-06T07:46:39.986Z,60.60
2018-04-06T07:49:07.551Z,60.50
2018-04-06T07:51:35.050Z,60.70
2018-04-06T07:54:04.254Z,59.60
2018-04-06T07:56:32.572Z,59.40
2018-04-06T07:59:01.531Z,59.40
2018-04-06T08:01:29.897Z,59.00
2018-04-06T08:03:57.462Z,59.00
2018-04-06T08:06:27.218Z,58.00
2018-04-06T08:08:54.748Z,58.10
2018-04-06T08:11:23.049Z,57.60
2018-04-06T08:13:55.277Z,57.80
2018-04-06T08:16:22.911Z,57.80
2018-04-06T08:18:51.246Z,58.10
2018-04-06T08:21:19.855Z,57.90
2018-04-06T08:23:48.129Z,56.40
2018-04-06T08:26:16.488Z,56.20
2018-04-06T08:28:44.750Z,56.20
2018-04-06T08:31:12.249Z,56.20
2018-04-06T08:33:40.715Z,56.50
2018-04-06T08:36:09.033Z,56.30
2018-04-06T08:38:36.560Z,56.20
2018-04-06T08:41:04.082Z,54.00
2018-04-06T08:43:32.613Z,53.40
2018-04-06T08:46:00.422Z,53.70
2018-04-06T08:48:27.926Z,54.20
2018-04-06T08:50:55.437Z,53.80
2018-04-06T08:53:22.993Z,53.20
2018-04-06T08:55:52.055Z,49.80
2018-04-06T08:58:20.430Z,49.80
2018-04-06T09:00:48.866Z,50.60
2018-04-06T09:03:17.141Z,51.00
2018-04-06T09:05:45.883Z,51.40
2018-04-06T09:08:14.111Z,51.30
2018-04-06T09:10:42.373Z,51.60
2018-04-06T09:13:09.982Z,51.50
2018-04-06T09:15:37.549Z,49.00
2018-04-06T09:18:05.189Z,47.10
2018-04-06T09:20:33.480Z,46.80
2018-04-06T09:23:01.008Z,46.80
2018-04-06T09:25:28.504Z,46.90
2018-04-06T09:27:56.796Z,48.00
2018-04-06T09:30:24.910Z,47.90
2018-04-06T09:32:52.416Z,47.80
2018-04-06T09:35:20.674Z,47.50
2018-04-06T09:37:48.171Z,47.50
2018-04-06T09:40:15.727Z,46.70
2018-04-06T09:42:44.005Z,45.10
2018-04-06T09:45:12.380Z,44.90
2018-04-06T09:47:39.869Z,44.90
2018-04-06T09:50:07.466Z,45.20
2018-04-06T09:52:34.993Z,43.70
2018-04-06T09:55:03.333Z,44.40
2018-04-06T09:57:30.849Z,44.30
2018-04-06T09:59:58.381Z,44.50
2018-04-06T10:02:25.931Z,44.50
2018-04-06T10:04:53.481Z,45.00
2018-04-06T10:07:20.993Z,45.50
2018-04-06T10:09:49.451Z,44.30
2018-04-06T10:12:17.004Z,44.70
2018-04-06T10:14:44.500Z,44.80
2018-04-06T10:17:12.783Z,43.60
2018-04-06T10:19:41.050Z,43.30
2018-04-06T10:22:09.336Z,42.30
2018-04-06T10:24:37.633Z,42.20
2018-04-06T10:27:05.125Z,42.20
2018-04-06T10:29:32.633Z,42.20
2018-04-06T10:32:00.901Z,42.90
2018-04-06T10:34:29.201Z,42.60
2018-04-06T10:36:57.496Z,42.20
2018-04-06T10:39:25.065Z,42.10
2018-04-06T10:41:52.600Z,41.00
2018-04-06T10:44:20.891Z,40.60
2018-04-06T10:46:49.168Z,40.50
2018-04-06T10:49:16.682Z,40.40
2018-04-06T10:51:44.210Z,40.40
2018-04-06T10:54:12.534Z,41.60
2018-04-06T10:56:40.048Z,41.60
2018-04-06T10:59:08.325Z,40.70
2018-04-06T11:01:36.581Z,40.00
2018-04-06T11:04:04.122Z,40.00
2018-04-06T11:06:31.654Z,40.60
2018-04-06T11:08:59.153Z,40.70
2018-04-06T11:11:26.654Z,40.30
2018-04-06T11:13:54.948Z,41.40
2018-04-06T11:16:23.491Z,41.30
2018-04-06T11:18:51.747Z,41.20
2018-04-06T11:21:19.269Z,42.10
2018-04-06T11:23:47.583Z,40.50
2018-04-06T11:26:15.161Z,41.00
2018-04-06T11:28:42.671Z,41.10
2018-04-06T11:31:10.197Z,39.80
2018-04-06T11:33:37.679Z,39.80
2018-04-06T11:36:05.196Z,39.20
2018-04-06T11:38:32.719Z,40.00
2018-04-06T11:41:00.279Z,39.60
2018-04-06T11:43:27.767Z,39.70
2018-04-06T11:45:56.033Z,39.00
2018-04-06T11:48:24.297Z,38.80
2018-04-06T11:50:51.908Z,38.70
2018-04-06T11:53:22.384Z,38.90
2018-04-06T11:55:53.774Z,38.90
2018-04-06T11:58:27.647Z,37.90
2018-04-06T12:00:57.653Z,37.10
2018-04-06T12:03:27.304Z,36.00
2018-04-06T12:05:54.859Z,36.50
2018-04-06T12:08:22.424Z,37.10
2018-04-06T12:10:49.951Z,38.40
2018-04-06T12:13:17.437Z,38.10
2018-04-06T12:15:45.019Z,37.80
2018-04-06T12:18:13.285Z,37.30
2018-04-06T12:20:40.777Z,37.30
2018-04-06T12:23:09.029Z,36.40
2018-04-06T12:25:36.614Z,36.30
2018-04-06T12:28:04.630Z,36.40
2018-04-06T12:30:32.127Z,37.40
2018-04-06T12:32:59.652Z,36.20
2018-04-06T12:35:27.211Z,35.80
2018-04-06T12:37:54.907Z,35.30
2018-04-06T12:40:22.500Z,35.90
2018-04-06T12:42:49.997Z,35.80
2018-04-06T12:45:18.273Z,35.10
2018-04-06T12:47:46.540Z,35.20
2018-04-06T12:50:14.861Z,35.50
2018-04-06T12:52:42.388Z,35.30
2018-04-06T12:55:10.665Z,34.80
2018-04-06T12:57:38.157Z,34.50
2018-04-06T13:00:05.703Z,34.80
2018-04-06T13:02:34.093Z,35.40
2018-04-06T13:05:02.371Z,35.40
2018-04-06T13:07:30.637Z,35.30
2018-04-06T13:09:59.071Z,34.20
2018-04-06T13:12:26.557Z,34.20
2018-04-06T13:14:54.077Z,33.20
2018-04-06T13:17:23.138Z,33.30
2018-04-06T13:19:51.411Z,32.50
2018-04-06T13:22:19.378Z,32.50
2018-04-06T13:24:47.656Z,30.70
2018-04-06T13:27:15.195Z,30.80
2018-04-06T13:29:43.302Z,31.20
2018-04-06T13:32:10.825Z,31.50
2018-04-06T13:34:38.409Z,33.20
2018-04-06T13:37:06.014Z,34.20
2018-04-06T13:39:33.528Z,33.70
2018-04-06T13:42:01.049Z,32.80
2018-04-06T13:44:29.981Z,32.70
2018-04-06T13:46:57.818Z,32.70
2018-04-06T13:49:26.095Z,32.30
2018-04-06T13:51:54.511Z,32.40
2018-04-06T13:54:21.992Z,32.40
2018-04-06T13:56:49.519Z,32.50
2018-04-06T13:59:17.095Z,33.60
2018-04-06T14:01:44.592Z,32.40
2018-04-06T14:04:12.100Z,32.60
2018-04-06T14:06:40.387Z,32.40
2018-04-06T14:09:08.764Z,32.80
2018-04-06T14:11:37.025Z,33.00
2018-04-06T14:14:04.523Z,33.50
2018-04-06T14:16:32.091Z,32.80
2018-04-06T14:18:59.619Z,32.90
2018-04-06T14:21:27.140Z,30.80
2018-04-06T14:23:55.318Z,30.10
2018-04-06T14:26:22.838Z,30.50
2018-04-06T14:28:51.153Z,31.10
2018-04-06T14:31:18.701Z,31.10
2018-04-06T14:33:46.204Z,31.40
2018-04-06T14:36:13.706Z,30.40
2018-04-06T14:38:42.630Z,30.10
2018-04-06T14:41:10.140Z,30.10
2018-04-06T14:43:37.662Z,30.30
2018-04-06T14:46:05.219Z,31.00
2018-04-06T14:48:32.722Z,31.10
2018-04-06T14:51:00.748Z,31.20
2018-04-06T14:53:28.257Z,29.30
2018-04-06T14:55:55.760Z,29.70
2018-04-06T14:58:24.033Z,30.90
2018-04-06T15:00:52.455Z,30.80
2018-04-06T15:03:19.943Z,31.20
2018-04-06T15:05:47.445Z,31.40
2018-04-06T15:08:15.719Z,32.10
2018-04-06T15:10:43.235Z,31.60
2018-04-06T15:13:10.744Z,32.30
2018-04-06T15:15:39.036Z,32.00
2018-04-06T15:18:07.925Z,32.00
2018-04-06T15:20:35.454Z,32.00
2018-04-06T15:23:03.057Z,32.10
2018-04-06T15:25:31.343Z,32.20
2018-04-06T15:27:59.625Z,32.20
2018-04-06T15:30:28.634Z,32.70
2018-04-06T15:32:56.131Z,32.60
2018-04-06T15:35:23.641Z,33.10
2018-04-06T15:37:51.910Z,32.80
2018-04-06T15:40:19.407Z,32.70
2018-04-06T15:42:47.163Z,33.10
2018-04-06T15:45:15.459Z,33.10
2018-04-06T15:47:42.977Z,33.10
2018-04-06T15:50:10.500Z,33.40
2018-04-06T15:52:41.397Z,33.40
2018-04-06T15:55:09.080Z,33.30
2018-04-06T15:57:37.442Z,33.20
2018-04-06T16:00:05.212Z,33.10
2018-04-06T16:02:32.739Z,33.70
2018-04-06T16:05:00.797Z,33.70
2018-04-06T16:07:28.367Z,33.50
2018-04-06T16:09:55.854Z,33.90
2018-04-06T16:12:23.371Z,33.10
2018-04-06T16:14:51.615Z,32.70
2018-04-06T16:17:20.052Z,32.50
2018-04-06T16:19:47.674Z,32.50
2018-04-06T16:22:15.256Z,32.80
2018-04-06T16:24:44.742Z,32.70
2018-04-06T16:27:12.743Z,32.70
2018-04-06T16:29:41.121Z,32.80
2018-04-06T16:32:09.548Z,33.20
2018-04-06T16:34:37.174Z,33.10
2018-04-06T16:37:05.337Z,32.60
2018-04-06T16:39:33.071Z,32.00
2018-04-06T16:42:00.943Z,32.10
2018-04-06T16:44:31.658Z,32.70
2018-04-06T16:47:00.017Z,32.20
2018-04-06T16:49:28.281Z,32.30
2018-04-06T16:51:57.070Z,32.30
2018-04-06T16:54:25.705Z,33.70
2018-04-06T16:56:53.372Z,33.10
2018-04-06T16:59:20.896Z,33.40
2018-04-06T17:01:49.209Z,33.60
2018-04-06T17:04:19.268Z,33.50
2018-04-06T17:06:53.441Z,32.40
2018-04-06T17:09:21.129Z,33.10
2018-04-06T17:11:48.760Z,32.40
2018-04-06T17:14:16.355Z,32.30
2018-04-06T17:16:43.865Z,32.00
2018-04-06T17:19:11.363Z,32.40
2018-04-06T17:21:38.876Z,32.70
2018-04-06T17:24:06.484Z,33.30
2018-04-06T17:26:35.976Z,34.20
2018-04-06T17:29:04.570Z,34.80
2018-04-06T17:31:32.205Z,34.80
2018-04-06T17:33:59.805Z,35.50
2018-04-06T17:36:28.361Z,35.70
2018-04-06T17:38:55.868Z,35.70
2018-04-06T17:41:23.358Z,35.70
2018-04-06T17:43:50.885Z,36.70
2018-04-06T17:46:18.400Z,36.50
2018-04-06T17:48:46.007Z,36.60
2018-04-06T17:51:14.309Z,37.50
2018-04-06T17:53:41.815Z,37.40
2018-04-06T17:56:09.305Z,37.60
2018-04-06T17:58:37.605Z,38.50
2018-04-06T18:01:05.137Z,38.50
2018-04-06T18:03:32.629Z,38.90
2018-04-06T18:06:00.891Z,39.30
2018-04-06T18:08:29.191Z,39.50
2018-04-06T18:10:57.441Z,39.70
2018-04-06T18:13:28.194Z,39.60
2018-04-06T18:15:56.768Z,40.50
2018-04-06T18:18:24.285Z,40.60
2018-04-06T18:20:51.839Z,41.10
2018-04-06T18:23:19.426Z,41.20
2018-04-06T18:25:46.920Z,41.30
2018-04-06T18:28:14.690Z,42.00
2018-04-06T18:30:42.189Z,43.10
2018-04-06T18:33:10.460Z,43.70
2018-04-06T18:35:38.760Z,44.00
2018-04-06T18:38:06.870Z,44.00
2018-04-06T18:40:34.613Z,44.10
2018-04-06T18:43:02.279Z,44.40
2018-04-06T18:45:29.782Z,44.90
2018-04-06T18:47:57.421Z,45.10
2018-04-06T18:50:24.922Z,45.30
2018-04-06T18:52:52.454Z,45.30
2018-04-06T18:55:19.961Z,45.60
2018-04-06T18:57:48.340Z,46.10
2018-04-06T19:00:16.614Z,46.40
2018-04-06T19:02:45.148Z,46.40
2018-04-06T19:05:12.696Z,46.60
2018-04-06T19:07:40.213Z,46.60
2018-04-06T19:10:08.308Z,47.10
2018-04-06T19:12:35.784Z,47.10
2018-04-06T19:15:04.859Z,47.00
2018-04-06T19:17:32.419Z,47.00
2018-04-06T19:20:00.708Z,46.90
2018-04-06T19:22:28.985Z,46.50
2018-04-06T19:24:58.012Z,47.00
2018-04-06T19:27:29.938Z,47.50
2018-04-06T19:29:57.707Z,47.50
2018-04-06T19:32:27.279Z,47.60
2018-04-06T19:34:54.782Z,47.90
2018-04-06T19:37:22.474Z,47.90
2018-04-06T19:39:50.930Z,48.40
2018-04-06T19:42:18.409Z,48.40
2018-04-06T19:44:45.988Z,48.50
2018-04-06T19:47:14.336Z,48.70
2018-04-06T19:49:41.904Z,48.70
2018-04-06T19:52:09.393Z,48.90
2018-04-06T19:54:39.902Z,49.20
2018-04-06T19:57:08.364Z,49.50
2018-04-06T19:59:36.322Z,49.50
2018-04-06T20:02:03.836Z,49.70
2018-04-06T20:04:31.354Z,49.90
2018-04-06T20:06:58.907Z,49.90
2018-04-06T20:09:26.584Z,50.00
2018-04-06T20:11:56.873Z,50.00
2018-04-06T20:14:25.194Z,50.00
2018-04-06T20:16:53.969Z,49.80
2018-04-06T20:19:21.487Z,49.80
2018-04-06T20:21:49.364Z,49.80
2018-04-06T20:24:17.690Z,50.40
2018-04-06T20:26:45.176Z,50.10
2018-04-06T20:29:13.227Z,50.40
2018-04-06T20:31:41.045Z,50.40
2018-04-06T20:34:08.627Z,50.90
2018-04-06T20:36:36.922Z,51.30
2018-04-06T20:39:05.272Z,50.90
2018-04-06T20:41:33.582Z,51.20
2018-04-06T20:44:01.875Z,51.50
2018-04-06T20:46:30.688Z,51.50
2018-04-06T20:48:58.867Z,51.50
2018-04-06T20:51:26.421Z,51.80
2018-04-06T20:53:53.927Z,52.00
2018-04-06T20:56:21.426Z,52.30
2018-04-06T20:58:49.699Z,52.60
2018-04-06T21:01:17.973Z,52.90
2018-04-06T21:03:46.231Z,53.30
2018-04-06T21:06:13.834Z,52.80
2018-04-06T21:08:41.402Z,52.90
2018-04-06T21:11:08.976Z,53.10
2018-04-06T21:13:36.508Z,52.90
2018-04-06T21:16:05.547Z,53.10
2018-04-06T21:18:33.418Z,53.00
2018-04-06T21:21:00.921Z,53.00
2018-04-06T21:23:28.475Z,53.10
2018-04-06T21:25:56.110Z,53.10
2018-04-06T21:28:24.941Z,53.20
2018-04-06T21:30:53.706Z,53.40
2018-04-06T21:33:22.117Z,53.40
2018-04-06T21:35:49.624Z,53.40
2018-04-06T21:38:18.327Z,53.20
2018-04-06T21:40:45.837Z,53.20
2018-04-06T21:43:13.406Z,53.40
2018-04-06T21:45:41.158Z,53.60
2018-04-06T21:48:08.694Z,53.80
2018-04-06T21:50:36.245Z,53.60
2018-04-06T21:53:03.776Z,53.80
2018-04-06T21:55:31.268Z,53.90
2018-04-06T21:57:59.658Z,53.70
2018-04-06T22:00:27.220Z,53.60
2018-04-06T22:02:54.828Z,53.40
2018-04-06T22:05:22.382Z,53.40
2018-04-06T22:07:49.907Z,53.70
2018-04-06T22:10:17.428Z,54.00
2018-04-06T22:12:44.912Z,54.00
2018-04-06T22:15:13.168Z,54.50
2018-04-06T22:17:40.664Z,54.50
2018-04-06T22:20:08.994Z,55.00
2018-04-06T22:22:36.612Z,55.40
2018-04-06T22:25:04.142Z,54.80
2018-04-06T22:27:31.740Z,54.80
2018-04-06T22:30:00.052Z,55.70
2018-04-06T22:32:27.626Z,55.20
2018-04-06T22:34:55.148Z,55.30
2018-04-06T22:37:23.495Z,55.50
2018-04-06T22:39:53.594Z,55.30
2018-04-06T22:42:21.300Z,55.80
2018-04-06T22:44:48.887Z,55.30
2018-04-06T22:47:17.232Z,55.30
2018-04-06T22:49:44.804Z,55.30
2018-04-06T22:52:12.360Z,55.40
2018-04-06T22:54:39.998Z,55.70
2018-04-06T22:57:07.529Z,55.90
2018-04-06T22:59:35.809Z,56.00
2018-04-06T23:02:04.106Z,56.30
2018-04-06T23:04:32.398Z,56.30
2018-04-06T23:06:59.921Z,56.30
2018-04-06T23:09:27.423Z,56.30
2018-04-06T23:11:54.940Z,56.30
2018-04-06T23:14:22.445Z,56.40
2018-04-06T23:16:49.942Z,56.60
2018-04-06T23:19:17.505Z,56.70
2018-04-06T23:21:45.036Z,56.50
2018-04-06T23:24:14.928Z,56.40
2018-04-06T23:26:42.506Z,56.40
2018-04-06T23:29:10.821Z,56.40
2018-04-06T23:31:38.313Z,56.50
2018-04-06T23:34:05.801Z,56.60
2018-04-06T23:36:33.300Z,56.70
2018-04-06T23:39:00.793Z,57.40
2018-04-06T23:41:28.367Z,57.00
2018-04-06T23:43:56.709Z,57.20
2018-04-06T23:46:24.218Z,57.20
2018-04-06T23:48:51.700Z,57.50
2018-04-06T23:51:19.325Z,57.30
2018-04-06T23:53:46.806Z,57.30
2018-04-06T23:56:14.320Z,57.20
2018-04-06T23:58:41.793Z,57.00
